Time;durP1;ratioP1;P1;durP2;ratioP2;P2;SDS_P1;SDS_P2;PMS_P1;PMS_P2;Temp;Humidity;BMP_temperature;BMP_pressure;BME280_temperature;BME280_humidity;BME280_pressure;Samples;Min_cycle;Max_cycle;Signal;HPM_P1;HPM_P2
2021/07/14 00:01:13;;;;;;;12.20;3.53;;;;;;;20.47;100.00;100361.21;1729842;82;20895;-64
2021/07/14 00:03:41;;;;;;;6.97;3.37;;;;;;;20.51;100.00;100355.73;1722927;82;21062;-64
2021/07/14 00:06:08;;;;;;;11.20;3.97;;;;;;;20.53;100.00;100351.80;1699376;83;21017;-63
2021/07/14 00:08:35;;;;;;;10.40;3.37;;;;;;;20.48;100.00;100356.98;1710329;83;21061;-64
2021/07/14 00:11:02;;;;;;;11.07;3.77;;;;;;;20.44;100.00;100358.52;1698418;83;21165;-64
2021/07/14 00:24:15;;;;;;;10.33;4.80;;;;;;;20.14;100.00;100357.06;1724065;81;22218;-64
2021/07/14 00:26:42;;;;;;;9.70;3.43;;;;;;;20.10;100.00;100359.92;1724452;81;20966;-64
2021/07/14 00:29:12;;;;;;;7.00;3.17;;;;;;;20.06;100.00;100366.75;1725573;81;21129;-63
2021/07/14 00:31:41;;;;;;;12.77;4.33;;;;;;;20.12;100.00;100362.34;1723568;81;21090;-61
2021/07/14 00:34:07;;;;;;;7.00;3.60;;;;;;;20.03;100.00;100368.55;1723740;81;21399;-64
2021/07/14 00:36:34;;;;;;;10.33;5.87;;;;;;;20.29;100.00;100375.53;1717346;81;21465;-64
2021/07/14 00:39:03;;;;;;;10.43;5.20;;;;;;;20.08;100.00;100372.61;1724458;81;20990;-61
2021/07/14 00:41:30;;;;;;;9.23;5.67;;;;;;;20.01;100.00;100369.85;1723596;81;21049;-61
2021/07/14 00:43:57;;;;;;;13.27;5.63;;;;;;;20.03;100.00;100380.98;1724774;81;21145;-64
2021/07/14 00:46:26;;;;;;;12.50;5.63;;;;;;;19.99;100.00;100375.90;1723391;81;21070;-61
2021/07/14 00:48:58;;;;;;;12.43;5.45;;;;;;;20.07;100.00;100369.66;1724139;81;20892;-63
2021/07/14 00:51:29;;;;;;;14.67;5.33;;;;;;;19.94;100.00;100379.27;1724544;81;20986;-60
2021/07/14 00:53:58;;;;;;;9.37;5.70;;;;;;;19.89;100.00;100380.00;1725055;81;21065;-62
2021/07/14 00:56:29;;;;;;;11.07;4.80;;;;;;;20.05;100.00;100375.73;1696258;81;21010;-59
2021/07/14 00:58:57;;;;;;;12.93;5.43;;;;;;;19.73;100.00;100379.47;1723877;81;21595;-62
2021/07/14 01:01:24;;;;;;;13.63;5.53;;;;;;;19.85;100.00;100378.06;1723114;81;21188;-59
2021/07/14 01:04:17;;;;;;;14.97;6.20;;;;;;;19.79;100.00;100377.72;1723552;81;22390;-62
2021/07/14 01:07:10;;;;;;;16.77;5.57;;;;;;;19.90;100.00;100378.95;1715972;81;21595;-62
2021/07/14 01:10:05;;;;;;;11.40;4.97;;;;;;;19.96;100.00;100383.78;1724080;81;21453;-63
2021/07/14 01:12:58;;;;;;;10.73;5.07;;;;;;;20.06;100.00;100381.83;1723601;81;20935;-61
2021/07/14 01:15:24;;;;;;;9.47;5.40;;;;;;;19.95;100.00;100375.58;1687830;83;21171;-63
2021/07/14 01:17:58;;;;;;;15.00;5.30;;;;;;;20.05;100.00;100382.35;1708779;83;21539;-63
2021/07/14 01:20:43;;;;;;;12.10;4.60;;;;;;;19.78;100.00;100386.70;1723423;81;21083;-62
2021/07/14 01:23:30;;;;;;;13.67;5.17;;;;;;;19.58;100.00;100395.05;1724205;81;21078;-63
2021/07/14 01:26:28;;;;;;;15.87;5.93;;;;;;;19.38;100.00;100396.83;1636347;84;21180;-64
2021/07/14 01:28:55;;;;;;;8.97;4.90;;;;;;;19.40;100.00;100398.20;1656139;83;21201;-63
2021/07/14 01:31:23;;;;;;;9.20;4.70;;;;;;;19.23;100.00;100403.16;1708215;83;21016;-65
2021/07/14 01:33:53;;;;;;;11.47;4.67;;;;;;;19.30;100.00;100400.66;1724055;81;21101;-64
2021/07/14 01:36:20;;;;;;;10.35;4.40;;;;;;;19.24;100.00;100406.08;1724276;81;21139;-62
2021/07/14 01:38:48;;;;;;;16.63;5.33;;;;;;;19.32;100.00;100395.12;1724157;81;20990;-63
2021/07/14 01:41:17;;;;;;;11.53;4.70;;;;;;;19.27;100.00;100410.91;1722879;81;21145;-63
2021/07/14 01:43:50;;;;;;;10.07;5.67;;;;;;;19.32;100.00;100404.38;1725142;81;21093;-63
2021/07/14 01:46:16;;;;;;;10.30;4.90;;;;;;;19.15;100.00;100402.50;1691941;83;21568;-63
2021/07/14 01:48:44;;;;;;;16.63;5.27;;;;;;;19.29;100.00;100400.91;1707820;83;20990;-62
2021/07/14 01:51:11;;;;;;;14.27;5.70;;;;;;;19.35;100.00;100405.23;1722816;81;21021;-60
2021/07/14 01:53:38;;;;;;;15.47;4.70;;;;;;;19.30;100.00;100411.23;1725030;81;21206;-63
2021/07/14 01:56:11;;;;;;;10.97;5.27;;;;;;;19.37;100.00;100409.77;1724489;81;20907;-63
2021/07/14 01:58:41;;;;;;;10.87;4.80;;;;;;;19.47;100.00;100411.78;1724758;81;21815;-64
2021/07/14 02:01:09;;;;;;;11.53;4.50;;;;;;;19.58;100.00;100409.07;1723460;81;21011;-63
2021/07/14 02:06:04;;;;;;;10.23;4.47;;;;;;;19.69;100.00;100397.66;1724667;81;21145;-63
2021/07/14 02:08:31;;;;;;;8.80;4.50;;;;;;;19.92;100.00;100394.05;1724699;81;21131;-60
2021/07/14 02:10:57;;;;;;;11.67;3.87;;;;;;;20.22;100.00;100396.08;1722765;81;21018;-63
2021/07/14 02:13:27;;;;;;;11.97;4.40;;;;;;;20.55;100.00;100390.73;1724415;81;21054;-63
2021/07/14 02:15:57;;;;;;;7.33;4.15;;;;;;;21.05;100.00;100384.42;1725268;81;20856;-64
2021/07/14 02:18:25;;;;;;;16.40;8.27;;;;;;;21.74;100.00;100387.73;1724174;81;21138;-64
2021/07/14 02:20:55;;;;;;;15.40;8.63;;;;;;;22.28;100.00;100386.28;1723062;81;21103;-61
2021/07/14 02:23:22;;;;;;;13.03;5.87;;;;;;;23.00;100.00;100387.94;1694473;81;20994;-64
2021/07/14 02:25:49;;;;;;;9.23;4.70;;;;;;;23.49;100.00;100377.63;1723611;81;21015;-65
2021/07/14 02:28:15;;;;;;;12.30;5.20;;;;;;;23.94;100.00;100380.55;1725169;81;21030;-63
2021/07/14 02:30:42;;;;;;;6.87;4.20;;;;;;;24.49;100.00;100372.19;1722248;81;21122;-60
2021/07/14 02:33:10;;;;;;;9.87;4.03;;;;;;;25.09;100.00;100378.83;1723630;81;21018;-64
2021/07/14 02:35:43;;;;;;;10.07;3.63;;;;;;;25.70;100.00;100375.72;1724368;81;21019;-66
2021/07/14 02:38:26;;;;;;;9.97;3.63;;;;;;;26.16;100.00;100376.63;1725196;81;21041;-62
2021/07/14 02:41:20;;;;;;;7.40;3.50;;;;;;;26.62;100.00;100377.45;1724034;81;20920;-65
2021/07/14 02:43:48;;;;;;;8.25;3.77;;;;;;;26.84;100.00;100379.58;1715845;81;21127;-64
2021/07/14 02:46:23;;;;;;;;;;;;;;;27.15;100.00;100379.97;1728063;81;21109;-61
2021/07/14 02:48:46;;;;;;;7.50;3.83;;;;;;;27.52;98.72;100375.65;1722482;81;20263;-64
2021/07/14 02:51:13;;;;;;;6.40;3.73;;;;;;;27.91;93.68;100375.25;1723964;81;20983;-65
2021/07/14 02:53:45;;;;;;;10.40;3.37;;;;;;;28.34;87.93;100371.77;1728745;81;20995;-66
2021/07/14 02:56:15;;;;;;;9.90;3.93;;;;;;;28.78;82.20;100374.34;1724664;81;21192;-64
2021/07/14 02:58:41;;;;;;;10.87;3.33;;;;;;;29.10;76.93;100383.34;1728762;81;21371;-66
2021/07/14 03:01:07;;;;;;;6.40;3.33;;;;;;;29.24;71.88;100376.56;1738423;79;20968;-68
2021/07/14 03:03:34;;;;;;;6.42;3.47;;;;;;;29.31;69.70;100376.93;1777541;80;20988;-62
2021/07/14 03:06:01;;;;;;;5.47;3.17;;;;;;;29.61;68.37;100378.10;1778214;80;21001;-60
2021/07/14 03:08:28;;;;;;;6.35;3.02;;;;;;;29.93;65.00;100378.88;1776806;79;21047;-65
2021/07/14 03:10:56;;;;;;;7.35;3.22;;;;;;;30.19;62.58;100381.18;1775421;80;20978;-66
2021/07/14 03:13:26;;;;;;;9.05;3.02;;;;;;;30.51;60.84;100379.98;1781338;80;20951;-60
2021/07/14 03:15:54;;;;;;;7.45;4.30;;;;;;;31.09;56.64;100381.23;1781103;80;48501;-68
2021/07/14 03:18:22;;;;;;;6.62;3.02;;;;;;;31.54;53.80;100378.98;1781307;80;21056;-68
2021/07/14 03:20:55;;;;;;;6.70;3.30;;;;;;;32.10;50.67;100379.77;1781612;80;21065;-67
2021/07/14 03:23:21;;;;;;;5.62;3.45;;;;;;;32.79;47.30;100375.87;1781562;80;20979;-64
2021/07/14 03:25:51;;;;;;;6.92;3.60;;;;;;;33.13;45.26;100378.88;1780692;80;21090;-64
2021/07/14 03:28:20;;;;;;;8.28;3.40;;;;;;;33.07;44.80;100378.88;1780780;80;20915;-65
2021/07/14 03:30:48;;;;;;;;;;;;;;;33.35;44.65;100377.72;1784263;80;21005;-68
2021/07/14 03:33:15;;;;;;;8.78;4.35;;;;;;;34.09;42.53;100373.81;1776072;80;21944;-62
2021/07/14 03:35:43;;;;;;;8.08;3.42;;;;;;;34.34;41.43;100373.23;1773311;80;21646;-67
2021/07/14 03:38:11;;;;;;;5.80;3.50;;;;;;;34.56;40.70;100380.90;1776342;80;21538;-62
2021/07/14 03:40:41;;;;;;;5.87;2.70;;;;;;;34.84;39.60;100386.91;1777419;80;20995;-67
2021/07/14 03:43:08;;;;;;;7.40;3.50;;;;;;;35.15;38.72;100385.47;1753159;80;20963;-67
2021/07/14 03:45:38;;;;;;;9.45;3.25;;;;;;;35.56;37.60;100393.75;1745192;81;21018;-67
2021/07/14 03:48:06;;;;;;;8.35;3.20;;;;;;;35.96;37.04;100395.52;1778939;79;22434;-61
2021/07/14 03:50:32;;;;;;;6.17;2.65;;;;;;;36.31;35.65;100395.58;1776724;80;20998;-68
2021/07/14 03:52:59;;;;;;;5.70;2.98;;;;;;;36.59;35.03;100393.29;1776112;80;20954;-68
2021/07/14 03:55:27;;;;;;;6.05;2.72;;;;;;;36.93;34.07;100391.66;1750315;81;21029;-70
2021/07/14 03:57:54;;;;;;;13.03;3.00;;;;;;;37.22;33.90;100401.19;1780728;80;21136;-63
2021/07/14 04:00:21;;;;;;;6.80;3.92;;;;;;;37.54;32.81;100400.99;1780975;80;20986;-66
2021/07/14 04:02:47;;;;;;;8.18;3.15;;;;;;;37.73;32.20;100401.73;1774588;79;20907;-64
2021/07/14 04:05:16;;;;;;;8.63;3.10;;;;;;;38.07;31.84;100407.33;1773973;79;21049;-63
2021/07/14 04:07:45;;;;;;;6.33;3.40;;;;;;;38.53;30.70;100405.89;1773584;79;21033;-63
2021/07/14 04:10:13;;;;;;;4.95;3.08;;;;;;;38.67;30.00;100410.72;1774706;79;21789;-64
2021/07/14 04:12:39;;;;;;;6.72;2.80;;;;;;;39.00;29.36;100407.84;1773038;80;21018;-64
2021/07/14 04:15:08;;;;;;;9.15;3.10;;;;;;;39.33;28.51;100402.97;1773762;80;21591;-64
2021/07/14 04:17:36;;;;;;;7.22;3.40;;;;;;;39.49;28.16;100406.23;1774490;80;20923;-63
2021/07/14 04:20:06;;;;;;;8.18;3.10;;;;;;;39.51;27.81;100402.53;1774659;79;21533;-64
2021/07/14 04:22:32;;;;;;;8.58;2.80;;;;;;;39.87;27.85;100400.14;1775392;79;21475;-64
2021/07/14 04:24:59;;;;;;;6.85;2.77;;;;;;;40.21;26.98;100397.28;1769243;79;20978;-64
2021/07/14 04:27:27;;;;;;;9.03;3.05;;;;;;;40.37;26.73;100401.26;1772575;79;21029;-63
2021/07/14 04:29:54;;;;;;;9.63;2.70;;;;;;;40.53;26.28;100400.16;1770806;79;20916;-62
2021/07/14 04:32:21;;;;;;;8.60;3.08;;;;;;;40.60;26.27;100401.00;1773709;79;20931;-62
2021/07/14 04:34:48;;;;;;;7.05;2.40;;;;;;;40.49;26.29;100401.51;1772712;79;22179;-61
2021/07/14 04:37:16;;;;;;;5.78;2.50;;;;;;;40.35;26.08;100405.56;1774142;79;21807;-61
2021/07/14 04:39:43;;;;;;;3.70;2.70;;;;;;;40.48;25.60;100406.00;1772551;79;20991;-60
2021/07/14 04:42:10;;;;;;;4.53;2.27;;;;;;;40.39;25.28;100406.36;1761616;79;21460;-63
2021/07/14 04:44:47;;;;;;;6.17;2.08;;;;;;;40.19;25.08;100401.73;1774098;79;20984;-65
2021/07/14 04:47:05;;;;;;;5.72;2.65;;;;;;;40.21;24.86;100397.28;1772359;79;22073;-64
2021/07/14 04:49:32;;;;;;;7.03;3.00;;;;;;;40.12;25.43;100398.95;1773209;79;20975;-64
2021/07/14 04:52:00;;;;;;;6.72;2.60;;;;;;;39.89;26.23;100405.44;1773000;79;20999;-64
2021/07/14 04:54:28;;;;;;;5.83;2.35;;;;;;;39.72;26.87;100401.20;1773822;79;21362;-64
2021/07/14 04:56:54;;;;;;;4.75;2.20;;;;;;;39.66;26.49;100404.22;1772630;79;21405;-65
2021/07/14 04:59:24;;;;;;;5.05;2.45;;;;;;;39.62;26.64;100402.05;1762846;79;21570;-64
2021/07/14 05:01:51;;;;;;;5.58;2.50;;;;;;;39.48;27.12;100405.25;1770588;79;20994;-61
2021/07/14 05:04:17;;;;;;;3.60;2.05;;;;;;;39.46;27.29;100407.56;1772767;79;21475;-64
2021/07/14 05:06:45;;;;;;;4.83;2.20;;;;;;;39.38;27.16;100408.08;1772542;79;20951;-62
2021/07/14 05:09:12;;;;;;;5.53;2.15;;;;;;;39.23;27.66;100408.48;1772166;79;21032;-63
2021/07/14 05:11:39;;;;;;;6.15;2.42;;;;;;;39.12;27.64;100406.22;1773796;79;21230;-60
2021/07/14 05:14:06;;;;;;;5.45;2.30;;;;;;;38.98;27.46;100412.28;1773516;79;20931;-63
2021/07/14 05:16:33;;;;;;;6.72;2.72;;;;;;;38.98;27.43;100410.14;1775832;79;22479;-63
2021/07/14 05:19:02;;;;;;;4.85;2.15;;;;;;;38.73;27.80;100413.34;1774719;80;20971;-62
2021/07/14 05:21:29;;;;;;;4.47;2.47;;;;;;;38.85;28.44;100409.03;1773461;80;20987;-60
2021/07/14 05:23:58;;;;;;;5.40;2.30;;;;;;;38.86;27.30;100411.17;1775382;79;21641;-60
2021/07/14 05:26:26;;;;;;;6.83;2.67;;;;;;;39.03;27.26;100413.92;1743427;81;20931;-63
2021/07/14 05:28:54;;;;;;;3.67;2.15;;;;;;;39.33;26.82;100411.93;1775326;79;20990;-63
2021/07/14 05:31:21;;;;;;;6.90;2.65;;;;;;;39.43;26.88;100409.67;1775359;79;21054;-64
2021/07/14 05:33:47;;;;;;;7.90;2.80;;;;;;;39.66;26.53;100412.99;1774961;79;20987;-62
2021/07/14 05:36:13;;;;;;;4.95;2.33;;;;;;;40.03;26.79;100417.02;1775265;79;21812;-65
2021/07/14 05:38:41;;;;;;;5.33;2.12;;;;;;;40.25;25.28;100413.87;1775204;79;21464;-63
2021/07/14 05:41:08;;;;;;;5.10;1.95;;;;;;;39.96;24.72;100407.99;1775485;79;20951;-64
2021/07/14 05:43:37;;;;;;;7.20;1.92;;;;;;;39.72;24.55;100410.16;1775825;79;20990;-66
2021/07/14 05:46:04;;;;;;;3.17;1.75;;;;;;;39.60;24.93;100407.69;1775302;79;20975;-65
2021/07/14 05:48:31;;;;;;;4.15;1.82;;;;;;;39.82;24.47;100415.52;1774478;79;21089;-61
2021/07/14 05:50:57;;;;;;;7.40;2.33;;;;;;;39.93;24.15;100412.84;1775627;79;20991;-66
2021/07/14 05:53:25;;;;;;;4.53;1.92;;;;;;;39.99;24.16;100416.80;1774368;79;21453;-64
2021/07/14 05:55:52;;;;;;;5.03;1.80;;;;;;;40.05;23.60;100415.29;1774656;80;21537;-66
2021/07/14 05:58:18;;;;;;;4.90;2.27;;;;;;;39.95;23.30;100400.98;1772812;79;21413;-65
2021/07/14 06:00:45;;;;;;;7.60;1.67;;;;;;;39.77;23.80;100408.44;1735670;80;21148;-67
2021/07/14 06:03:13;;;;;;;5.55;2.00;;;;;;;39.99;23.92;100405.88;1750316;80;20986;-68
2021/07/14 06:05:40;;;;;;;5.62;2.02;;;;;;;39.99;23.72;100405.29;1779390;78;21069;-66
2021/07/14 06:08:07;;;;;;;2.98;1.57;;;;;;;40.18;24.28;100405.64;1805863;77;21050;-66
2021/07/14 06:10:35;;;;;;;4.83;1.85;;;;;;;40.47;23.21;100412.64;1807289;77;20930;-62
2021/07/14 06:13:03;;;;;;;3.20;1.80;;;;;;;40.41;23.05;100404.59;1809177;77;22425;-66
2021/07/14 06:15:30;;;;;;;3.75;2.15;;;;;;;40.47;22.97;100409.32;1810758;79;20977;-66
2021/07/14 06:17:57;;;;;;;3.85;1.98;;;;;;;40.48;23.82;100406.00;1810348;77;20930;-66
2021/07/14 06:20:25;;;;;;;3.52;1.80;;;;;;;40.55;23.76;100408.77;1804370;78;21005;-62
2021/07/14 06:22:52;;;;;;;5.35;2.20;;;;;;;40.82;23.69;100412.03;1806430;78;21139;-66
2021/07/14 06:25:19;;;;;;;3.35;2.00;;;;;;;41.35;23.23;100405.16;1809933;79;21129;-65
2021/07/14 06:27:47;;;;;;;3.50;1.80;;;;;;;41.47;22.36;100404.21;1809376;77;21480;-65
2021/07/14 06:30:15;;;;;;;3.58;1.80;;;;;;;41.39;22.44;100404.58;1808952;77;21544;-61
2021/07/14 06:32:43;;;;;;;3.25;2.10;;;;;;;41.23;22.65;100405.73;1803295;78;21104;-64
2021/07/14 06:35:11;;;;;;;4.92;2.00;;;;;;;41.21;22.88;100403.95;1808845;77;21066;-65
2021/07/14 06:37:39;;;;;;;3.62;2.20;;;;;;;41.07;22.51;100407.45;1808710;77;21171;-67
2021/07/14 06:40:08;;;;;;;6.43;1.93;;;;;;;40.93;22.72;100407.38;1810955;77;20919;-61
2021/07/14 06:42:35;;;;;;;2.95;1.90;;;;;;;40.68;22.90;100405.91;1810314;78;21095;-65
2021/07/14 06:45:07;;;;;;;3.92;1.90;;;;;;;40.65;22.68;100405.90;1810418;78;21121;-66
2021/07/14 06:47:34;;;;;;;2.90;1.80;;;;;;;40.81;23.11;100408.52;1810115;78;21096;-66
2021/07/14 06:50:03;;;;;;;6.53;2.02;;;;;;;41.10;22.92;100405.88;1810982;77;21979;-62
2021/07/14 06:52:30;;;;;;;3.83;2.30;;;;;;;41.21;21.66;100404.54;1809941;77;22266;-64
2021/07/14 06:54:57;;;;;;;4.55;2.00;;;;;;;41.30;21.77;100394.80;1810531;78;21524;-67
2021/07/14 06:57:27;;;;;;;3.72;2.20;;;;;;;41.47;21.52;100395.22;1810006;78;21064;-65
2021/07/14 06:59:51;;;;;;;6.58;2.00;;;;;;;41.39;21.01;100404.58;1810751;77;20963;-66
2021/07/14 07:02:18;;;;;;;4.17;2.02;;;;;;;41.20;21.87;100401.61;1807935;77;21108;-67
2021/07/14 07:04:45;;;;;;;4.62;2.08;;;;;;;41.22;21.84;100394.59;1801274;79;21061;-65
2021/07/14 07:07:12;;;;;;;4.35;1.98;;;;;;;41.08;21.49;100389.09;1801138;79;21311;-67
2021/07/14 07:09:38;;;;;;;5.05;1.70;;;;;;;40.95;21.07;100389.21;1802044;79;20990;-65
2021/07/14 07:12:06;;;;;;;4.10;1.90;;;;;;;40.72;21.60;100388.95;1801003;79;21449;-62
2021/07/14 07:14:35;;;;;;;2.70;1.77;;;;;;;40.84;21.63;100394.64;1801927;79;21020;-62
2021/07/14 07:17:04;;;;;;;4.87;2.02;;;;;;;40.94;21.42;100387.66;1801906;79;22212;-61
2021/07/14 07:19:31;;;;;;;3.85;1.82;;;;;;;41.10;20.84;100389.47;1802511;79;21050;-65
2021/07/14 07:21:58;;;;;;;4.78;2.10;;;;;;;41.19;21.20;100387.75;1789276;78;21066;-63
2021/07/14 07:24:25;;;;;;;3.70;2.30;;;;;;;41.22;21.15;100386.39;1799165;79;21531;-60
2021/07/14 07:26:52;;;;;;;5.70;2.20;;;;;;;41.23;20.61;100384.44;1800016;79;21136;-66
2021/07/14 07:29:20;;;;;;;2.90;1.77;;;;;;;40.74;20.17;100389.36;1801345;79;21640;-66
2021/07/14 07:31:46;;;;;;;4.30;3.27;;;;;;;40.52;20.60;100393.14;1801564;79;21104;-65
2021/07/14 07:34:15;;;;;;;8.48;5.83;;;;;;;40.54;21.37;100389.45;1802209;79;20997;-62
2021/07/14 07:36:41;;;;;;;6.25;4.55;;;;;;;40.67;21.72;100395.38;1800538;79;21088;-66
2021/07/14 07:39:07;;;;;;;5.20;3.30;;;;;;;40.58;21.22;100377.98;1802698;78;21115;-64
2021/07/14 07:41:34;;;;;;;4.72;2.17;;;;;;;40.65;19.08;100379.94;1802762;79;20898;-66
2021/07/14 07:44:01;;;;;;;3.83;1.85;;;;;;;40.39;20.26;100374.95;1802354;79;20957;-65
2021/07/14 07:46:28;;;;;;;3.50;1.67;;;;;;;40.35;19.55;100378.24;1792647;79;21350;-63
2021/07/14 07:48:54;;;;;;;4.53;1.50;;;;;;;40.17;20.16;100378.73;1783431;79;20914;-66
2021/07/14 07:51:21;;;;;;;3.12;1.75;;;;;;;40.30;18.93;100379.37;1790996;78;21163;-62
2021/07/14 07:53:49;;;;;;;5.03;1.67;;;;;;;40.09;19.33;100373.78;1786650;79;21040;-64
2021/07/14 07:56:16;;;;;;;3.15;1.75;;;;;;;40.11;19.40;100385.08;1794989;79;21073;-61
2021/07/14 07:58:44;;;;;;;6.25;1.95;;;;;;;39.99;18.83;100378.58;1783994;79;22416;-68
2021/07/14 08:01:12;;;;;;;2.85;1.45;;;;;;;39.80;19.88;100373.57;1789930;79;21164;-67
2021/07/14 08:03:40;;;;;;;2.62;1.55;;;;;;;39.85;19.35;100373.80;1791875;77;21046;-68
2021/07/14 08:06:07;;;;;;;2.85;1.60;;;;;;;39.84;20.30;100362.68;1787844;78;21480;-68
2021/07/14 08:08:34;;;;;;;4.00;1.60;;;;;;;40.15;20.19;100365.44;1787630;77;21586;-67
2021/07/14 08:11:03;;;;;;;3.52;1.60;;;;;;;40.20;19.29;100361.00;1789520;77;21607;-66
2021/07/14 08:13:30;;;;;;;3.02;1.70;;;;;;;39.86;19.75;100363.88;1791675;77;21052;-66
2021/07/14 08:15:57;;;;;;;3.17;1.77;;;;;;;39.51;20.58;100362.20;1790708;78;21120;-67
2021/07/14 08:18:25;;;;;;;3.98;1.95;;;;;;;39.03;20.70;100363.49;1792581;77;20983;-67
2021/07/14 08:20:56;;;;;;;2.20;1.37;;;;;;;38.78;20.34;100362.59;1809442;78;20998;-65
2021/07/14 08:23:24;;;;;;;5.22;1.75;;;;;;;38.71;19.94;100355.70;1798898;77;22455;-65
2021/07/14 08:25:52;;;;;;;3.17;2.05;;;;;;;39.38;20.12;100358.98;1803203;77;20990;-69
2021/07/14 08:28:20;;;;;;;2.08;1.60;;;;;;;39.67;20.23;100362.73;1808753;78;21183;-67
2021/07/14 08:30:48;;;;;;;4.50;1.60;;;;;;;39.76;19.76;100360.48;1810861;78;20931;-62
2021/07/14 08:33:15;;;;;;;2.80;1.70;;;;;;;39.92;19.28;100361.56;1810414;77;20898;-66
2021/07/14 08:35:42;;;;;;;2.58;1.60;;;;;;;39.72;19.21;100359.67;1810555;78;21052;-65
2021/07/14 08:38:09;;;;;;;2.80;1.67;;;;;;;39.59;20.40;100356.44;1810050;77;20880;-68
2021/07/14 08:40:38;;;;;;;5.83;2.15;;;;;;;39.12;19.29;100362.59;1803920;79;21104;-69
2021/07/14 08:43:06;;;;;;;2.60;1.85;;;;;;;38.91;19.78;100353.63;1805376;78;20962;-69
2021/07/14 08:45:34;;;;;;;2.30;1.60;;;;;;;38.88;20.38;100347.56;1803674;78;21036;-64
2021/07/14 08:48:03;;;;;;;6.25;1.85;;;;;;;38.78;19.90;100350.33;1801776;78;21116;-64
2021/07/14 08:50:31;;;;;;;5.45;2.45;;;;;;;38.75;19.70;100345.63;1804019;78;21602;-68
2021/07/14 08:52:59;;;;;;;3.40;2.10;;;;;;;38.82;20.11;100358.00;1801556;79;21115;-61
2021/07/14 08:55:25;;;;;;;4.60;1.98;;;;;;;38.74;19.96;100346.78;1808566;79;21068;-64
2021/07/14 08:57:53;;;;;;;4.65;1.62;;;;;;;38.76;20.38;100344.48;1809240;78;20985;-68
2021/07/14 09:00:22;;;;;;;2.05;1.42;;;;;;;38.74;19.75;100355.55;1808285;79;21190;-66
2021/07/14 09:02:49;;;;;;;6.35;1.90;;;;;;;38.93;19.98;100346.63;1804249;78;20974;-61
2021/07/14 09:05:16;;;;;;;4.17;2.05;;;;;;;38.98;20.95;100347.45;1808251;78;21189;-68
2021/07/14 09:07:43;;;;;;;3.02;1.70;;;;;;;39.47;20.91;100342.29;1809902;78;21057;-65
2021/07/14 09:10:13;;;;;;;10.20;9.10;;;;;;;39.75;19.96;100350.73;1809195;77;21000;-67
2021/07/14 09:12:45;;;;;;;8.38;6.10;;;;;;;39.83;19.16;100347.48;1809748;77;21004;-66
2021/07/14 09:15:14;;;;;;;8.20;5.92;;;;;;;39.96;20.12;100346.57;1810652;77;21099;-66
2021/07/14 09:17:51;;;;;;;7.87;7.10;;;;;;;39.96;20.01;100349.30;1809687;78;21044;-64
2021/07/14 09:20:30;;;;;;;4.87;3.40;;;;;;;39.87;20.46;100342.23;1806817;79;22449;-64
2021/07/14 09:23:19;;;;;;;9.88;8.88;;;;;;;40.02;19.52;100338.23;1809366;77;21054;-62
2021/07/14 09:26:04;;;;;;;2.00;1.70;;;;;;;40.26;19.65;100338.97;1810057;79;21505;-64
2021/07/14 09:28:34;;;;;;;5.70;2.10;;;;;;;40.29;19.19;100339.58;1810071;79;21008;-65
2021/07/14 09:31:06;;;;;;;3.62;1.87;;;;;;;40.03;19.83;100341.94;1810082;78;20959;-66
2021/07/14 09:33:33;;;;;;;5.42;3.47;;;;;;;39.72;19.47;100339.80;1807371;78;20985;-65
2021/07/14 09:36:01;;;;;;;18.52;16.80;;;;;;;39.53;19.98;100335.34;1801569;78;20958;-66
2021/07/14 09:38:30;;;;;;;4.00;2.75;;;;;;;39.62;19.39;100339.88;1807037;78;21721;-60
2021/07/14 09:41:04;;;;;;;4.20;1.95;;;;;;;39.80;19.61;100340.82;1807735;77;21026;-66
2021/07/14 09:43:38;;;;;;;3.20;1.77;;;;;;;39.94;19.28;100334.69;1806856;77;20966;-60
2021/07/14 09:46:07;;;;;;;3.47;1.67;;;;;;;40.26;18.40;100332.73;1811317;78;21559;-65
2021/07/14 09:48:38;;;;;;;3.22;1.75;;;;;;;40.50;18.34;100317.03;1800311;78;21102;-67
2021/07/14 09:51:20;;;;;;;3.87;2.10;;;;;;;40.74;19.61;100324.35;1810990;77;21062;-65
2021/07/14 09:53:51;;;;;;;3.95;1.90;;;;;;;40.66;19.00;100319.45;1812247;77;20958;-66
2021/07/14 09:56:23;;;;;;;5.75;2.02;;;;;;;40.31;19.61;100327.70;1810910;78;21478;-67
2021/07/14 09:59:10;;;;;;;4.80;2.40;;;;;;;40.09;19.65;100321.90;1811196;77;20974;-67
2021/07/14 10:01:49;;;;;;;4.30;2.27;;;;;;;40.04;20.88;100326.34;1800301;77;21503;-61
2021/07/14 10:04:29;;;;;;;4.80;1.98;;;;;;;40.02;20.36;100327.31;1789348;77;20971;-66
2021/07/14 10:07:15;;;;;;;4.42;2.02;;;;;;;39.92;19.78;100330.17;1777520;79;20981;-68
2021/07/14 10:09:44;;;;;;;4.12;1.90;;;;;;;39.86;19.08;100321.57;1753022;80;21124;-65
2021/07/14 10:12:31;;;;;;;2.65;1.75;;;;;;;40.16;19.49;100326.06;1773890;79;20966;-61
2021/07/14 10:15:19;;;;;;;4.90;2.20;;;;;;;40.23;19.67;100326.07;1771851;79;21053;-67
2021/07/14 10:17:50;;;;;;;6.15;2.30;;;;;;;40.28;19.32;100317.53;1770855;79;21044;-67
2021/07/14 10:20:33;;;;;;;4.00;2.20;;;;;;;40.37;19.30;100322.05;1777643;79;21058;-67
2021/07/14 10:23:07;;;;;;;4.08;2.22;;;;;;;40.43;19.21;100318.37;1776067;79;21183;-66
2021/07/14 10:25:38;;;;;;;2.90;1.80;;;;;;;40.52;19.97;100310.59;1776513;79;21049;-65
2021/07/14 10:28:06;;;;;;;4.17;1.90;;;;;;;40.41;20.26;100309.77;1769659;79;21038;-65
2021/07/14 10:30:33;;;;;;;3.40;1.57;;;;;;;40.26;19.79;100318.48;1767643;79;21017;-66
2021/07/14 10:33:01;;;;;;;5.30;1.80;;;;;;;40.10;19.50;100313.90;1767931;80;21020;-66
2021/07/14 10:35:35;;;;;;;2.42;1.80;;;;;;;40.36;19.95;100315.61;1761637;79;21818;-67
2021/07/14 10:38:06;;;;;;;2.95;1.90;;;;;;;40.19;19.75;100314.35;1766368;79;21009;-62
2021/07/14 10:40:34;;;;;;;4.95;1.77;;;;;;;40.12;19.80;100304.76;1770108;79;20961;-65
2021/07/14 10:43:03;;;;;;;3.08;1.75;;;;;;;40.30;19.21;100301.53;1780658;79;20944;-67
2021/07/14 10:45:29;;;;;;;3.58;1.90;;;;;;;40.71;18.92;100299.94;1778197;80;20882;-68
2021/07/14 10:47:56;;;;;;;4.97;1.92;;;;;;;40.54;18.42;100291.87;1776666;79;21467;-65
2021/07/14 10:50:25;;;;;;;2.60;1.62;;;;;;;40.83;18.62;100294.09;1777177;79;21476;-67
2021/07/14 10:52:52;;;;;;;3.35;1.80;;;;;;;41.11;18.33;100299.45;1776469;79;21455;-65
2021/07/14 10:55:25;;;;;;;3.00;1.50;;;;;;;41.21;18.42;100292.41;1779357;79;21516;-65
2021/07/14 10:57:53;;;;;;;6.83;1.80;;;;;;;41.06;18.27;100288.88;1773560;80;20922;-67
2021/07/14 11:00:21;;;;;;;4.87;1.52;;;;;;;40.56;18.72;100283.31;1776583;79;22254;-68
2021/07/14 11:02:50;;;;;;;2.95;1.60;;;;;;;40.18;18.96;100289.58;1777391;80;20966;-67
2021/07/14 11:05:19;;;;;;;3.65;1.70;;;;;;;40.02;19.42;100287.73;1828904;77;20939;-67
2021/07/14 11:07:46;;;;;;;3.33;1.60;;;;;;;39.90;19.79;100290.20;1797880;78;21862;-67
2021/07/14 11:10:35;;;;;;;4.50;1.92;;;;;;;39.94;20.10;100289.64;1827750;77;21073;-65
2021/07/14 11:13:28;;;;;;;6.00;1.87;;;;;;;39.94;19.89;100280.67;1826789;77;21159;-66
2021/07/14 11:15:58;;;;;;;2.20;1.55;;;;;;;39.77;19.63;100288.36;1828101;77;20957;-63
2021/07/14 11:18:35;;;;;;;2.65;1.70;;;;;;;39.22;19.71;100284.22;1828222;77;20933;-66
2021/07/14 11:21:03;;;;;;;3.58;1.40;;;;;;;38.78;19.94;100282.21;1826531;78;20941;-61
2021/07/14 11:23:31;;;;;;;2.47;1.62;;;;;;;38.64;20.19;100279.33;1827579;77;21368;-66
2021/07/14 11:26:00;;;;;;;4.80;1.95;;;;;;;38.82;19.86;100276.25;1813423;78;21018;-66
2021/07/14 11:28:28;;;;;;;2.52;1.52;;;;;;;39.05;19.86;100277.44;1806858;78;20929;-65
2021/07/14 11:31:09;;;;;;;3.45;1.90;;;;;;;39.25;20.03;100271.23;1805316;77;20960;-61
2021/07/14 11:33:37;;;;;;;2.27;1.47;;;;;;;39.66;19.63;100269.74;1816492;77;20933;-69
2021/07/14 11:36:10;;;;;;;5.47;1.85;;;;;;;39.88;18.78;100267.95;1827536;77;20958;-66
2021/07/14 11:38:50;;;;;;;4.60;1.87;;;;;;;40.14;19.56;100265.58;1816766;77;21067;-61
2021/07/14 11:41:26;;;;;;;4.25;1.52;;;;;;;40.21;19.74;100266.97;1820672;77;21011;-66
2021/07/14 11:43:56;;;;;;;3.45;1.85;;;;;;;40.08;20.19;100269.24;1787641;78;20953;-66
2021/07/14 11:46:26;;;;;;;3.25;1.72;;;;;;;40.04;18.99;100264.32;1821294;77;21418;-68